首页
METAR-TAF:

METAR-TAF

机场 :

空军基地

Salon-de-Provence, 法国

纬度: 43-36N, 经度: 005-06E, 海拔: 59米

当前天气观测

该预报发布于43分钟前的20:00 UTC
风速15节,风向北转西北
温度 10°C
湿度 53%
气压 1002 hPa
能见度10公里或以上
1500米以下无云,无积雨云

METAR: LFMY 122000Z AUTO 33015KT CAVOK 10/01 Q1002

时间: 21:43 (20:43 UTC)

预报

该预报发布于6小时和43分钟前的14:00 UTC
预报有效从12日的 15点(UTC)到 13日的 15点(UTC)
风速15节,风向北转西北,有时为25节阵风
能见度10公里或以上
1500米以下无云,无积雨云
成为
从 13日的 00点(UTC)到 13日的 02点(UTC)
风速10节,风向北转西北
成为
从 13日的 07点(UTC)到 13日的 09点(UTC)
风速15节,风向北转西北,有时为25节阵风

TAF: LFMY 121400Z 1215/1315 33015G25KT CAVOK BECMG 1300/1302 33010KT BECMG 1307/1309 33015G25KT

超过4000个机场的气象观测和天气预报(METAR&TAF报告)。

可查询的气象台以黄色和红色小点在地图上表示。

将鼠标移到小点上方,可查看气象台名称。

然后点击查看天气观测和预报。

如需切换地图:点击带黑十字的绿色按钮放大地图;点击带横线的绿色按钮缩小地图;或者点击绿色箭头查看邻近地区的地图。


METAR-TAF: